Time;durP1;ratioP1;P1;durP2;ratioP2;P2;SDS_P1;SDS_P2;PMS_P1;PMS_P2;Temp;Humidity;BMP_temperature;BMP_pressure;BME280_temperature;BME280_humidity;BME280_pressure;Samples;Min_cycle;Max_cycle;Signal;HPM_P1;HPM_P2
2022/04/04 00:01:33;;;;;;;7.97;5.57;;;2.80;63.10;;;-1.76;77.75;95777.56;5032197;28;20024;-55
2022/04/04 00:04:05;;;;;;;9.07;5.78;;;2.80;63.10;;;-1.79;78.22;95774.50;5031601;28;20021;-53
2022/04/04 00:06:33;;;;;;;8.98;5.97;;;2.80;63.20;;;-1.75;78.60;95779.19;5048394;28;20032;-55
2022/04/04 00:08:58;;;;;;;8.75;5.40;;;2.80;63.10;;;-1.78;78.05;95765.69;5032056;28;20462;-54
2022/04/04 00:11:27;;;;;;;8.25;5.30;;;2.80;63.10;;;-1.78;78.09;95766.50;5031795;28;20072;-54
2022/04/04 00:13:53;;;;;;;7.60;5.10;;;2.90;63.10;;;-1.72;77.75;95763.16;5032330;28;20025;-53
2022/04/04 00:16:19;;;;;;;7.97;5.72;;;2.80;63.00;;;-1.75;78.04;95768.75;5032702;28;20030;-55
2022/04/04 00:18:44;;;;;;;9.40;5.70;;;2.80;63.00;;;-1.82;77.47;95767.84;5032629;28;20029;-55
2022/04/04 00:21:16;;;;;;;7.53;5.20;;;2.80;63.00;;;-1.89;77.84;95759.13;5031493;28;20021;-54
2022/04/04 00:23:42;;;;;;;8.27;5.10;;;2.90;63.10;;;-1.77;78.06;95770.72;5031485;28;20033;-55
2022/04/04 00:26:14;;;;;;;8.20;5.43;;;2.80;63.00;;;-1.78;78.38;95769.13;5031406;28;20029;-55
2022/04/04 00:28:41;;;;;;;9.13;5.65;;;2.80;63.00;;;-1.77;78.74;95765.50;5031340;28;20071;-54
2022/04/04 00:31:07;;;;;;;8.90;5.47;;;2.80;63.10;;;-1.79;78.52;95764.06;5032418;28;20518;-55
2022/04/04 00:33:42;;;;;;;8.70;5.25;;;2.80;63.10;;;-1.76;78.66;95761.88;5031266;28;20072;-55
2022/04/04 00:36:13;;;;;;;8.88;5.20;;;2.80;63.10;;;-1.81;79.01;95764.25;5031020;28;20047;-54
2022/04/04 00:38:45;;;;;;;9.35;6.05;;;2.80;63.10;;;-1.78;79.34;95763.09;5031184;28;20029;-56
2022/04/04 00:41:26;;;;;;;10.55;5.93;;;2.80;63.10;;;-1.80;79.79;95765.88;5031239;28;20056;-64
2022/04/04 00:43:53;;;;;;;8.15;5.45;;;2.90;63.30;;;-1.80;79.51;95765.88;5031168;28;20030;-52
2022/04/04 00:46:21;;;;;;;7.65;5.40;;;2.80;63.20;;;-1.78;79.20;95756.06;5032175;28;20448;-57
2022/04/04 00:48:47;;;;;;;7.65;5.90;;;2.80;63.20;;;-1.79;78.83;95748.38;5014529;28;20123;-54
2022/04/04 00:51:19;;;;;;;7.90;5.40;;;2.90;63.30;;;-1.85;78.61;95734.25;5030911;28;20091;-51
2022/04/04 00:53:48;;;;;;;8.80;5.57;;;2.80;63.20;;;-1.88;78.21;95738.06;5031063;28;20033;-52
2022/04/04 00:56:17;;;;;;;8.68;5.65;;;2.90;63.30;;;-2.03;78.00;95708.56;5031102;28;20108;-49
2022/04/04 00:58:43;;;;;;;16.17;6.47;;;2.90;63.20;;;-1.86;78.49;95730.84;5031038;28;20030;-56
2022/04/04 01:01:08;;;;;;;7.43;5.15;;;2.90;63.20;;;-1.85;78.28;95734.25;5030742;28;20034;-55
2022/04/04 01:03:34;;;;;;;7.78;5.70;;;2.80;63.20;;;-1.87;77.88;95725.81;5032132;28;20105;-56
2022/04/04 01:06:03;;;;;;;8.60;5.47;;;2.90;63.20;;;-1.88;76.93;95732.00;5047375;28;20029;-53
2022/04/04 01:08:32;;;;;;;9.68;5.25;;;2.80;63.10;;;-1.89;77.45;95725.97;5047411;28;20036;-56
2022/04/04 01:10:58;;;;;;;8.38;5.05;;;2.80;63.10;;;-1.87;77.54;95731.03;5017953;28;20029;-55
2022/04/04 01:13:24;;;;;;;7.88;5.40;;;2.80;63.10;;;-1.86;77.00;95730.84;5035629;28;20087;-56
2022/04/04 01:15:51;;;;;;;8.98;5.35;;;2.70;63.00;;;-1.91;77.61;95716.75;5032000;28;20033;-55
2022/04/04 01:18:16;;;;;;;7.40;5.00;;;2.70;63.00;;;-1.87;77.12;95724.00;5030560;28;20546;-55
2022/04/04 01:20:45;;;;;;;11.00;4.95;;;2.70;63.10;;;-1.98;76.55;95716.63;5033921;28;20037;-54
2022/04/04 01:23:13;;;;;;;8.13;5.28;;;2.60;63.00;;;-2.03;77.57;95720.81;5034601;28;20026;-56
2022/04/04 01:25:39;;;;;;;8.35;4.65;;;2.60;63.00;;;-2.08;77.47;95715.31;5034786;28;20021;-53
2022/04/04 01:28:05;;;;;;;9.13;5.57;;;2.50;63.00;;;-2.06;77.62;95718.56;5035588;28;20452;-53
2022/04/04 01:30:35;;;;;;;7.60;5.13;;;2.50;63.10;;;-2.15;77.04;95708.22;5034722;28;20037;-54
2022/04/04 01:33:03;;;;;;;7.97;5.53;;;2.40;63.10;;;-2.20;78.02;95718.38;5034561;28;20057;-55
2022/04/04 01:35:29;;;;;;;6.90;5.18;;;2.30;63.20;;;-2.26;77.42;95707.84;5051091;28;20068;-55
2022/04/04 01:37:59;;;;;;;9.02;5.15;;;2.30;63.20;;;-2.34;77.90;95700.94;5034528;28;20029;-54
2022/04/04 01:40:25;;;;;;;8.93;5.05;;;2.30;63.30;;;-2.30;78.27;95701.38;5034428;28;20030;-56
2022/04/04 01:42:54;;;;;;;8.35;5.40;;;2.30;63.40;;;-2.29;78.52;95698.59;5034071;28;20544;-55
2022/04/04 01:46:23;;;;;;;6.88;4.93;;;2.20;63.40;;;-2.41;79.14;95695.66;5034379;28;20376;-51
2022/04/04 01:48:11;;;;;;;9.43;5.68;;;2.10;63.40;;;-2.39;79.18;95698.06;5034366;28;20026;-54
2022/04/04 01:50:38;;;;;;;10.55;5.55;;;2.00;64.30;;;-2.49;79.22;95693.13;5050846;28;20063;-52
2022/04/04 01:56:04;;;;;;;10.82;7.15;;;1.90;63.60;;;-2.54;80.61;95702.47;5035560;28;20071;-53
2022/04/04 01:58:30;;;;;;;11.40;6.25;;;1.80;63.70;;;-2.66;80.62;95700.31;5050674;28;20117;-53
2022/04/04 02:01:01;;;;;;;8.30;5.60;;;1.70;63.80;;;-2.69;81.06;95711.09;5035221;28;20037;-54
2022/04/04 02:03:29;;;;;;;7.72;5.47;;;1.60;64.00;;;-2.72;80.47;95710.66;5034080;28;20380;-56
2022/04/04 02:05:55;;;;;;;10.43;5.97;;;1.60;64.00;;;-2.78;80.96;95709.56;5050528;28;20063;-54
2022/04/04 02:08:21;;;;;;;9.85;6.53;;;1.60;64.10;;;-2.82;81.59;95714.34;5034030;28;20025;-55
2022/04/04 02:10:46;;;;;;;9.85;6.30;;;1.60;64.30;;;-2.77;82.25;95712.97;5037482;28;20490;-55
2022/04/04 02:13:15;;;;;;;10.90;6.32;;;1.60;64.30;;;-2.75;81.79;95714.44;5040115;28;20025;-57
2022/04/04 02:15:47;;;;;;;10.35;5.70;;;1.70;65.20;;;-2.72;81.40;95714.06;5035101;28;20430;-54
2022/04/04 02:18:13;;;;;;;8.23;5.97;;;1.70;64.40;;;-2.83;80.92;95691.03;5034935;28;20361;-55
2022/04/04 02:20:39;;;;;;;9.70;6.15;;;1.80;64.40;;;-2.70;81.17;95722.50;5050322;28;20033;-54
2022/04/04 02:23:05;;;;;;;9.48;5.97;;;1.80;64.40;;;-2.66;81.28;95709.94;5033578;28;20025;-55
2022/04/04 02:25:30;;;;;;;7.50;5.05;;;1.90;64.40;;;-2.63;81.08;95699.97;5033563;28;20060;-55
2022/04/04 02:28:03;;;;;;;8.13;5.47;;;1.90;64.40;;;-2.56;80.95;95703.47;5034766;28;20025;-56
2022/04/04 02:30:29;;;;;;;8.15;5.40;;;2.00;64.40;;;-2.53;80.81;95701.50;5034341;28;20049;-55
2022/04/04 02:32:58;;;;;;;10.15;5.93;;;2.00;64.40;;;-2.60;80.94;95697.00;5033909;28;20045;-54
2022/04/04 02:35:27;;;;;;;10.55;6.00;;;2.00;64.40;;;-2.55;80.87;95706.88;5033527;28;20064;-55
2022/04/04 02:37:56;;;;;;;9.77;6.00;;;2.00;64.40;;;-2.53;80.38;95702.31;5049934;28;20026;-54
2022/04/04 02:40:25;;;;;;;10.00;6.38;;;2.10;64.40;;;-2.51;80.45;95702.91;5033279;28;20041;-54
2022/04/04 02:43:04;;;;;;;9.10;6.13;;;2.10;64.40;;;-2.50;80.54;95701.13;5033115;28;20049;-56
2022/04/04 02:45:30;;;;;;;8.60;5.88;;;2.20;64.40;;;-2.44;80.43;95711.66;5033360;28;20025;-54
2022/04/04 02:47:56;;;;;;;9.50;6.18;;;2.20;64.30;;;-2.39;80.22;95714.53;5033246;28;20021;-55
2022/04/04 02:50:22;;;;;;;10.73;6.63;;;2.20;64.30;;;-2.44;80.05;95710.84;5033372;28;20392;-56
2022/04/04 02:53:16;;;;;;;8.23;5.63;;;2.20;64.10;;;-2.38;79.76;95710.94;5033148;28;20026;-55
2022/04/04 02:58:35;;;;;;;10.13;6.13;;;2.30;64.10;;;-2.34;80.39;95711.38;5034299;28;20037;-54
2022/04/04 03:01:01;;;;;;;8.85;5.68;;;2.30;64.10;;;-2.30;79.76;95704.00;5033157;28;20506;-53
2022/04/04 03:03:32;;;;;;;10.27;5.68;;;2.40;64.10;;;-2.34;79.67;95711.38;5049597;28;20108;-53
2022/04/04 03:06:01;;;;;;;8.40;5.68;;;2.40;64.10;;;-2.36;79.68;95703.72;5032780;28;20053;-55
2022/04/04 03:08:36;;;;;;;12.57;6.55;;;2.40;64.10;;;-2.29;79.35;95709.03;5034229;28;20026;-55
2022/04/04 03:11:05;;;;;;;9.98;5.90;;;2.40;64.00;;;-2.28;79.65;95699.41;5037646;28;20029;-52
2022/04/04 03:13:31;;;;;;;9.35;5.72;;;2.40;64.10;;;-2.25;79.23;95704.28;5049316;28;20151;-52
2022/04/04 03:15:56;;;;;;;9.38;5.88;;;2.40;64.00;;;-2.26;79.20;95703.44;5032823;28;20471;-55
2022/04/04 03:18:23;;;;;;;10.10;6.32;;;2.40;63.90;;;-2.30;79.19;95694.38;5032562;28;20476;-55
2022/04/04 03:20:50;;;;;;;8.07;5.78;;;2.50;63.90;;;-2.19;79.16;95695.72;5032625;28;20395;-55
2022/04/04 03:23:20;;;;;;;11.57;6.25;;;2.50;63.90;;;-2.18;79.16;95692.09;5033763;28;20022;-55
2022/04/04 03:25:49;;;;;;;9.02;5.40;;;2.50;64.70;;;-2.24;78.45;95690.22;5033813;28;20030;-51
2022/04/04 03:28:15;;;;;;;9.02;5.13;;;2.50;63.90;;;-2.31;78.49;95678.91;5033648;28;20021;-55
2022/04/04 03:30:40;;;;;;;7.13;5.05;;;2.50;63.90;;;-2.23;78.12;95678.78;5032499;28;20456;-55
2022/04/04 03:33:06;;;;;;;9.35;5.38;;;2.50;63.90;;;-2.14;78.44;95680.31;5033478;28;20025;-57
2022/04/04 03:35:35;;;;;;;8.52;5.57;;;2.50;63.80;;;-2.16;78.32;95683.13;5033635;28;20041;-54
2022/04/04 03:38:03;;;;;;;9.95;5.70;;;2.50;63.90;;;-2.16;77.80;95687.53;5032227;28;20036;-53
2022/04/04 03:40:34;;;;;;;10.55;6.50;;;2.50;63.90;;;-2.22;78.20;95683.03;5033536;28;20021;-54
2022/04/04 03:43:04;;;;;;;9.00;5.53;;;2.50;63.90;;;-2.20;78.02;95679.22;5047681;28;20034;-53
2022/04/04 03:45:31;;;;;;;8.73;5.43;;;2.50;63.80;;;-2.13;78.53;95685.34;5032271;28;20036;-55
2022/04/04 03:47:58;;;;;;;10.48;6.13;;;2.50;63.80;;;-2.17;78.14;95678.06;5015628;28;20029;-53
2022/04/04 03:50:29;;;;;;;8.13;5.18;;;2.50;63.70;;;-2.16;77.80;95675.28;5032120;28;20148;-54
2022/04/04 03:52:56;;;;;;;9.90;5.97;;;2.60;63.70;;;-2.20;77.56;95667.97;5048508;28;20121;-55
2022/04/04 03:55:45;;;;;;;7.97;5.25;;;2.60;63.60;;;-2.15;77.76;95673.47;5033325;28;20389;-56
2022/04/04 03:58:14;;;;;;;9.15;5.88;;;2.60;63.60;;;-2.20;77.74;95670.59;5032931;28;20448;-53
2022/04/04 04:00:41;;;;;;;8.73;5.70;;;2.60;63.60;;;-2.16;77.45;95666.66;5031974;28;20436;-52
2022/04/04 04:03:10;;;;;;;9.18;6.13;;;2.60;63.50;;;-2.16;77.74;95675.28;5048518;28;20071;-54
2022/04/04 04:05:36;;;;;;;11.02;6.15;;;2.60;63.50;;;-2.08;77.93;95684.78;5033088;28;20387;-53
2022/04/04 04:08:08;;;;;;;11.40;6.10;;;2.60;63.50;;;-2.09;77.69;95677.97;5033164;28;20029;-55
2022/04/04 04:10:37;;;;;;;9.18;4.97;;;2.60;63.40;;;-2.04;78.03;95678.22;5035511;28;20060;-50
2022/04/04 04:13:06;;;;;;;10.50;6.45;;;2.60;63.40;;;-2.13;77.96;95671.47;5048482;28;20388;-51
2022/04/04 04:15:37;;;;;;;11.63;6.75;;;2.60;63.50;;;-2.18;78.59;95674.66;5032176;28;20053;-52
2022/04/04 04:18:03;;;;;;;11.32;6.13;;;2.60;63.50;;;-2.13;77.49;95671.47;5032043;28;20335;-54
2022/04/04 04:20:31;;;;;;;9.30;6.07;;;2.70;63.40;;;-2.12;77.51;95668.69;5031933;28;20424;-54
2022/04/04 04:23:05;;;;;;;10.18;6.47;;;2.60;63.30;;;-2.18;77.83;95669.44;5031995;28;20033;-53
2022/04/04 04:25:41;;;;;;;11.32;6.80;;;2.60;63.30;;;-2.29;78.45;95672.50;5032180;28;20487;-52
2022/04/04 04:28:07;;;;;;;8.98;5.93;;;2.50;63.20;;;-2.28;78.76;95673.31;5033222;28;20382;-52
2022/04/04 04:30:35;;;;;;;13.05;7.18;;;2.40;63.30;;;-2.33;78.17;95676.47;5031757;28;20057;-50
2022/04/04 04:33:02;;;;;;;9.77;6.40;;;2.30;63.40;;;-2.34;78.61;95680.06;5031506;28;20032;-54
2022/04/04 04:35:28;;;;;;;10.48;6.22;;;2.20;63.50;;;-2.43;78.47;95670.72;5031677;28;20025;-53
2022/04/04 04:37:54;;;;;;;11.70;6.68;;;2.10;63.60;;;-2.48;78.90;95681.69;5031574;28;20505;-52
2022/04/04 04:40:29;;;;;;;12.00;7.32;;;2.00;63.80;;;-2.58;79.36;95678.53;5032845;28;20470;-51
2022/04/04 04:42:56;;;;;;;10.93;6.72;;;1.90;63.80;;;-2.67;79.57;95677.00;5032573;28;20239;-51
2022/04/04 04:45:22;;;;;;;10.10;6.88;;;1.70;63.70;;;-2.76;79.38;95683.31;5031562;28;20048;-51
2022/04/04 04:47:49;;;;;;;12.63;6.82;;;1.60;63.90;;;-2.88;79.60;95685.56;5031554;28;20100;-51
2022/04/04 04:50:26;;;;;;;10.93;6.53;;;1.40;63.90;;;-2.96;78.82;95688.22;5031410;28;20025;-53
2022/04/04 04:52:56;;;;;;;12.13;6.55;;;1.30;64.00;;;-3.16;80.01;95688.75;5031418;28;20065;-53
2022/04/04 04:55:26;;;;;;;15.65;7.05;;;1.10;64.00;;;-3.30;83.42;95681.69;5031343;28;20026;-53
2022/04/04 04:57:53;;;;;;;14.98;7.47;;;1.00;64.20;;;-3.43;81.82;95674.47;5031456;28;20029;-54
2022/04/04 05:00:23;;;;;;;10.32;7.15;;;0.80;65.00;;;-3.56;81.74;95682.06;5031324;28;20391;-53
2022/04/04 05:03:24;;;;;;;12.27;7.18;;;0.70;64.30;;;-3.68;81.77;95686.84;5032361;28;20037;-54
2022/04/04 05:05:37;;;;;;;13.20;7.95;;;0.60;64.50;;;-3.88;82.01;95678.69;5033017;28;20048;-53
2022/04/04 05:08:08;;;;;;;14.48;7.93;;;0.40;64.60;;;-3.99;82.68;95684.28;5031303;28;20038;-51
2022/04/04 05:10:34;;;;;;;15.30;8.18;;;0.30;64.70;;;-4.00;83.38;95693.09;5034594;28;20032;-54
2022/04/04 05:13:03;;;;;;;16.13;7.47;;;0.20;65.60;;;-4.09;84.46;95699.31;5031175;28;20022;-53
2022/04/04 05:15:28;;;;;;;13.55;8.10;;;0.10;65.00;;;-4.23;83.41;95691.25;5032621;28;20021;-55
2022/04/04 05:17:57;;;;;;;16.20;8.80;;;0.10;65.20;;;-4.31;84.42;95688.69;5031313;28;20087;-56
2022/04/04 05:20:26;;;;;;;13.68;8.68;;;0.00;65.30;;;-4.35;84.25;95697.81;5047706;28;20021;-53
2022/04/04 05:22:57;;;;;;;13.05;8.35;;;0.00;65.70;;;-4.40;84.33;95702.69;5031105;28;20064;-55
2022/04/04 05:25:23;;;;;;;15.73;9.05;;;-0.10;65.70;;;-4.47;83.97;95707.75;5026206;28;20017;-57
2022/04/04 05:27:59;;;;;;;14.80;8.35;;;-0.10;65.80;;;-4.52;83.97;95706.63;5032442;28;20021;-56
2022/04/04 05:30:27;;;;;;;15.50;8.85;;;-0.10;65.90;;;-4.60;84.43;95697.09;5032405;28;20026;-53
2022/04/04 05:32:56;;;;;;;15.68;8.90;;;-0.10;66.00;;;-4.57;84.84;95712.34;5046930;28;20076;-55
2022/04/04 05:35:25;;;;;;;14.23;8.40;;;0.00;66.30;;;-4.58;85.14;95705.50;5041834;28;20399;-53
2022/04/04 05:37:59;;;;;;;19.67;10.38;;;0.00;66.40;;;-4.51;86.30;95713.44;5030977;28;20025;-53
2022/04/04 05:40:25;;;;;;;21.42;9.88;;;0.10;66.70;;;-4.41;87.18;95711.47;5032145;28;20034;-55
2022/04/04 05:43:07;;;;;;;16.00;9.35;;;0.20;66.70;;;-4.25;87.74;95708.00;5031806;28;20042;-51
2022/04/04 05:45:39;;;;;;;15.07;9.20;;;0.40;66.90;;;-4.16;87.44;95714.78;5031776;28;20121;-53
2022/04/04 05:48:06;;;;;;;16.60;10.00;;;0.50;66.90;;;-4.00;87.86;95722.53;5034189;28;20029;-55
2022/04/04 05:50:33;;;;;;;14.00;8.88;;;0.60;66.80;;;-3.91;87.28;95723.28;5031669;28;20018;-56
2022/04/04 05:53:01;;;;;;;14.70;7.70;;;0.80;66.80;;;-3.81;87.25;95716.06;5030937;28;20095;-57
2022/04/04 05:55:27;;;;;;;14.77;9.13;;;0.90;66.70;;;-3.74;86.74;95721.41;5036228;28;20033;-56
2022/04/04 05:57:53;;;;;;;15.43;9.07;;;1.00;66.70;;;-3.66;86.99;95725.75;5032515;28;20030;-56
2022/04/04 06:00:19;;;;;;;15.27;9.00;;;1.10;66.60;;;-3.62;86.97;95712.22;5031844;28;20029;-58
2022/04/04 06:02:48;;;;;;;14.00;8.60;;;1.20;66.50;;;-3.46;86.73;95720.91;5031271;28;20017;-58
2022/04/04 06:05:14;;;;;;;14.75;9.35;;;1.30;66.60;;;-3.36;86.81;95721.47;5033920;28;20030;-59
2022/04/04 06:07:40;;;;;;;15.25;8.45;;;1.40;66.50;;;-3.17;86.54;95725.38;5050671;28;20022;-58
2022/04/04 06:10:09;;;;;;;16.73;9.13;;;1.60;66.60;;;-2.96;86.01;95722.94;5053884;28;20033;-54
2022/04/04 06:12:38;;;;;;;9.43;6.68;;;1.90;66.80;;;-2.49;84.85;95721.00;5050998;28;20025;-53
2022/04/04 06:15:05;;;;;;;11.60;6.85;;;2.30;66.90;;;-1.91;82.39;95722.75;5050654;28;20033;-57
2022/04/04 06:17:31;;;;;;;12.60;7.10;;;2.80;67.00;;;-1.33;80.10;95735.81;5035548;28;20108;-55
2022/04/04 06:19:59;;;;;;;11.43;7.28;;;3.30;67.20;;;-0.73;77.64;95729.28;5034125;28;20568;-55
2022/04/04 06:22:25;;;;;;;15.68;7.38;;;3.80;67.30;;;-0.25;74.91;95726.00;5034055;28;20018;-54
2022/04/04 06:24:52;;;;;;;9.23;6.38;;;4.30;67.10;;;0.14;72.49;95735.84;4978088;28;20045;-54
2022/04/04 06:27:17;;;;;;;10.38;6.68;;;4.80;66.50;;;0.67;71.89;95735.19;5050428;28;20064;-56
2022/04/04 06:29:45;;;;;;;19.63;7.60;;;5.30;65.60;;;1.09;68.96;95744.53;5033639;28;20084;-52
2022/04/04 06:32:11;;;;;;;10.05;6.07;;;5.90;64.90;;;1.61;66.23;95748.16;5033542;28;20030;-54
2022/04/04 06:34:38;;;;;;;9.57;5.88;;;6.50;64.00;;;2.04;65.03;95749.47;5049975;28;20041;-53
2022/04/04 06:37:10;;;;;;;11.68;6.70;;;7.00;62.90;;;2.41;62.49;95747.91;5034868;28;20045;-52
2022/04/04 06:39:37;;;;;;;15.30;7.22;;;7.50;61.50;;;2.80;62.09;95751.38;5032343;28;20124;-53
2022/04/04 06:42:06;;;;;;;10.50;6.47;;;7.90;60.70;;;3.15;59.81;95754.38;5022831;23;20053;-50
2022/04/04 06:44:38;;;;;;;10.27;6.68;;;8.40;59.70;;;3.37;59.48;95759.28;5025942;28;20144;-48
2022/04/04 06:47:04;;;;;;;10.27;6.93;;;8.80;58.60;;;3.55;57.89;95754.06;5014477;28;20037;-50
2022/04/04 06:49:36;;;;;;;9.95;6.22;;;9.10;58.80;;;3.81;57.25;95752.22;5013226;28;20480;-51
2022/04/04 06:52:03;;;;;;;9.68;6.18;;;9.60;57.30;;;4.14;54.86;95749.25;5006523;28;20058;-50
2022/04/04 06:54:32;;;;;;;8.05;6.05;;;10.00;57.00;;;4.41;54.67;95745.25;5014140;28;20029;-49
2022/04/04 06:56:58;;;;;;;7.53;5.72;;;10.40;56.20;;;4.49;53.35;95748.66;5013170;28;20026;-49
2022/04/04 06:59:30;;;;;;;12.18;6.30;;;10.90;55.70;;;4.55;53.30;95753.03;5014147;28;20490;-49
2022/04/04 07:01:56;;;;;;;9.27;5.88;;;11.30;54.70;;;4.84;52.60;95744.31;5014353;28;20026;-49
2022/04/04 07:04:22;;;;;;;7.40;5.72;;;11.80;54.30;;;5.18;52.01;95747.28;5013069;28;20472;-50
2022/04/04 07:06:47;;;;;;;8.57;5.97;;;12.20;53.60;;;5.60;51.41;95744.56;5013048;28;20516;-49
2022/04/04 07:09:13;;;;;;;9.05;6.18;;;12.70;52.90;;;5.70;51.10;95747.47;5014281;28;20052;-50
2022/04/04 07:11:40;;;;;;;9.25;5.82;;;13.00;52.10;;;5.52;50.54;95755.50;5010446;28;20148;-49
2022/04/04 07:14:06;;;;;;;6.13;5.03;;;13.10;51.20;;;5.34;50.72;95754.53;5012882;28;20022;-51
2022/04/04 07:16:35;;;;;;;7.30;5.55;;;13.00;50.40;;;4.73;52.23;95754.81;4917710;28;20038;-51
2022/04/04 07:19:00;;;;;;;10.05;6.25;;;13.00;49.20;;;4.87;52.35;95748.34;5036955;28;20041;-50
2022/04/04 07:21:29;;;;;;;7.90;5.97;;;12.80;49.10;;;4.64;52.29;95751.69;5013881;28;20391;-49
2022/04/04 07:23:57;;;;;;;7.10;5.38;;;12.80;48.70;;;4.43;52.46;95747.69;5013605;28;20113;-47
2022/04/04 07:26:23;;;;;;;13.57;6.20;;;12.70;48.60;;;4.47;53.65;95748.03;5012611;28;20067;-47
2022/04/04 07:28:49;;;;;;;10.60;6.07;;;12.70;48.60;;;4.71;53.51;95756.88;4995985;28;20469;-48
2022/04/04 07:31:18;;;;;;;8.82;6.28;;;12.80;48.50;;;4.80;53.08;95747.63;5013637;28;20034;-49
2022/04/04 07:33:52;;;;;;;8.27;5.90;;;12.80;48.20;;;4.64;53.47;95749.88;5013834;28;20575;-51
2022/04/04 07:36:30;;;;;;;7.78;5.85;;;12.70;47.90;;;4.69;52.88;95751.81;5013876;28;20145;-50
2022/04/04 07:38:56;;;;;;;8.43;6.18;;;12.70;47.60;;;5.06;52.22;95747.25;5013745;28;20044;-51
2022/04/04 07:41:27;;;;;;;11.32;6.50;;;12.90;48.00;;;5.23;51.44;95749.22;5013454;28;20022;-51
2022/04/04 07:43:53;;;;;;;9.57;6.30;;;13.00;48.00;;;5.20;52.46;95754.97;4996154;28;20036;-49
2022/04/04 07:46:19;;;;;;;9.27;6.07;;;13.20;47.60;;;5.24;52.53;95750.88;5012482;28;20101;-50
2022/04/04 07:48:48;;;;;;;7.70;6.05;;;13.40;47.40;;;4.91;52.82;95752.13;5013649;28;20030;-51
2022/04/04 07:51:16;;;;;;;8.70;6.20;;;13.30;46.30;;;4.95;52.93;95752.47;5013337;28;20036;-51
2022/04/04 07:53:42;;;;;;;10.57;6.68;;;13.30;46.20;;;5.07;53.81;95754.13;5013481;28;20053;-51
2022/04/04 07:56:08;;;;;;;14.00;6.20;;;13.50;46.20;;;5.06;52.97;95749.09;5013538;28;20509;-46
2022/04/04 07:58:36;;;;;;;9.40;7.22;;;13.40;45.80;;;4.86;52.79;95750.19;5011761;28;20022;-49
2022/04/04 08:01:03;;;;;;;9.20;7.38;;;13.40;44.90;;;4.99;53.83;95748.38;5013427;28;20034;-51
2022/04/04 08:03:29;;;;;;;8.50;6.15;;;13.50;44.90;;;5.28;52.65;95752.00;5012090;28;20045;-50
2022/04/04 08:05:55;;;;;;;9.63;6.18;;;13.60;44.90;;;5.81;51.54;95759.06;5013171;28;20022;-47
2022/04/04 08:08:30;;;;;;;12.90;6.78;;;13.80;44.70;;;6.15;50.35;95754.03;5011915;28;20038;-48
2022/04/04 08:11:00;;;;;;;10.02;6.60;;;14.30;44.50;;;5.95;48.81;95746.44;5010975;28;20026;-49
2022/04/04 08:13:29;;;;;;;8.35;6.30;;;14.60;43.90;;;6.15;49.06;95746.09;5011767;28;20029;-48
2022/04/04 08:16:00;;;;;;;8.02;5.93;;;14.80;42.90;;;6.52;48.90;95741.31;5011748;28;20018;-49
2022/04/04 08:18:26;;;;;;;9.63;6.65;;;15.10;42.40;;;6.91;46.96;95741.50;5011603;28;20091;-48
2022/04/04 08:20:58;;;;;;;7.63;6.63;;;15.40;42.00;;;7.25;47.37;95742.38;5012990;28;20378;-46
2022/04/04 08:23:29;;;;;;;8.25;6.38;;;15.80;41.30;;;7.30;45.60;95739.00;5012794;28;20040;-48
2022/04/04 08:25:57;;;;;;;8.80;6.57;;;16.20;40.70;;;7.64;47.36;95740.59;5012934;28;20026;-47
2022/04/04 08:28:24;;;;;;;13.80;7.68;;;16.60;40.50;;;8.11;45.38;95742.88;5008633;28;20060;-58
2022/04/04 08:30:52;;;;;;;8.98;7.43;;;17.20;40.00;;;7.86;44.79;95740.66;5012863;28;20099;-48
2022/04/04 08:33:41;;;;;;;9.07;6.70;;;17.50;37.60;;;8.40;45.32;95732.16;5011413;28;20046;-47
2022/04/04 08:36:07;;;;;;;8.23;6.47;;;18.00;37.70;;;8.88;43.92;95738.53;5012559;28;20030;-48
2022/04/04 08:38:35;;;;;;;7.78;6.65;;;18.50;37.80;;;9.40;41.36;95735.31;5023756;28;20034;-48
2022/04/04 08:41:09;;;;;;;8.50;6.35;;;19.00;36.80;;;9.47;41.83;95735.91;5012603;28;20084;-46
2022/04/04 08:43:51;;;;;;;9.77;7.10;;;19.50;35.40;;;9.71;41.44;95732.88;5011082;28;20069;-46
2022/04/04 08:46:17;;;;;;;9.95;6.93;;;20.00;34.70;;;9.11;41.52;95726.78;5011979;28;20086;-49
2022/04/04 08:48:44;;;;;;;7.93;6.25;;;20.20;34.40;;;8.52;43.21;95729.34;5011601;28;20026;-50
2022/04/04 08:51:24;;;;;;;7.07;6.00;;;19.60;33.40;;;7.63;43.08;95733.69;5011301;28;20030;-48
2022/04/04 08:53:49;;;;;;;8.27;6.72;;;18.70;31.70;;;7.22;44.41;95731.44;5011510;28;20275;-49
2022/04/04 08:56:26;;;;;;;9.15;6.13;;;17.80;32.40;;;7.42;42.59;95734.41;4993280;28;20114;-46
2022/04/04 08:58:54;;;;;;;14.95;6.70;;;17.70;32.40;;;7.83;42.60;95727.09;5013386;28;20032;-46
2022/04/04 09:01:25;;;;;;;8.48;7.20;;;17.70;32.60;;;8.06;42.01;95731.41;5011746;28;20100;-47
2022/04/04 09:04:19;;;;;;;7.50;5.95;;;17.90;33.00;;;8.87;41.83;95731.63;5010271;28;20117;-49
2022/04/04 09:07:00;;;;;;;7.03;5.88;;;18.70;33.10;;;9.31;40.24;95723.53;5016756;28;20033;-47
2022/04/04 09:09:50;;;;;;;6.95;5.47;;;19.50;31.80;;;9.66;40.51;95719.56;5012343;28;20022;-47
2022/04/04 09:12:20;;;;;;;7.97;6.70;;;20.30;31.50;;;10.28;38.26;95723.41;5026739;28;20030;-50
2022/04/04 09:14:58;;;;;;;7.85;6.57;;;21.30;31.00;;;10.61;38.48;95720.38;5012152;28;20496;-51
2022/04/04 09:17:45;;;;;;;7.40;6.57;;;22.40;30.00;;;11.10;36.26;95721.84;5012893;28;20175;-48
2022/04/04 09:20:11;;;;;;;8.10;7.30;;;23.30;28.20;;;11.46;37.61;95704.00;5011127;28;20034;-46
2022/04/04 09:22:52;;;;;;;7.40;6.05;;;24.10;28.40;;;12.01;35.57;95714.94;5012093;28;20056;-48
2022/04/04 09:25:31;;;;;;;7.00;6.20;;;24.30;27.70;;;11.28;37.74;95704.50;5012863;28;20028;-47
2022/04/04 09:28:15;;;;;;;7.65;6.57;;;24.30;27.30;;;10.79;37.94;95703.13;5010883;28;20392;-48
2022/04/04 09:30:42;;;;;;;7.03;5.95;;;23.80;26.80;;;10.31;35.37;95702.41;5011217;28;20026;-49
2022/04/04 09:33:13;;;;;;;6.88;6.00;;;23.20;26.90;;;10.06;37.79;95700.41;5012029;28;20062;-47
2022/04/04 09:35:47;;;;;;;7.13;6.25;;;22.60;26.00;;;9.94;38.68;95695.28;5008233;28;20197;-48
2022/04/04 09:38:14;;;;;;;6.82;6.00;;;21.70;26.50;;;9.66;41.00;95692.97;4994906;28;20040;-47
2022/04/04 09:40:40;;;;;;;7.05;6.07;;;20.90;27.40;;;8.84;39.30;95681.66;5011727;28;20077;-46
2022/04/04 09:43:06;;;;;;;8.77;6.85;;;20.10;27.40;;;8.89;38.68;95683.53;5015166;28;20077;-46
2022/04/04 09:45:32;;;;;;;6.43;5.82;;;19.60;28.00;;;8.82;38.56;95677.63;5015709;28;20018;-47
2022/04/04 09:48:04;;;;;;;6.53;5.55;;;19.30;28.10;;;8.28;39.69;95679.16;4998920;28;20057;-47
2022/04/04 09:50:42;;;;;;;6.93;6.13;;;19.10;27.80;;;7.76;43.80;95678.72;5011928;28;20026;-46
2022/04/04 09:53:12;;;;;;;7.18;6.40;;;18.50;27.70;;;8.26;41.01;95665.31;5015099;28;20033;-51
2022/04/04 09:55:49;;;;;;;6.88;6.18;;;18.60;27.80;;;8.49;39.01;95669.59;5015587;28;20385;-50
2022/04/04 09:58:19;;;;;;;8.43;6.10;;;19.10;27.50;;;8.23;40.34;95663.16;5022173;28;20030;-47
2022/04/04 10:00:49;;;;;;;7.68;6.10;;;19.00;27.30;;;8.30;41.90;95665.63;5014360;28;20018;-46
2022/04/04 10:03:17;;;;;;;8.70;6.53;;;19.00;27.50;;;8.20;43.07;95662.84;4998132;28;20144;-47
2022/04/04 10:06:05;;;;;;;8.18;6.63;;;19.00;27.90;;;8.49;40.42;95653.69;5014154;28;20030;-51
2022/04/04 10:08:36;;;;;;;8.43;6.93;;;18.90;27.90;;;7.97;40.16;95654.09;5018543;28;20503;-47
2022/04/04 10:11:03;;;;;;;8.48;6.32;;;18.90;27.70;;;8.44;42.53;95652.81;5014220;28;20034;-47
2022/04/04 10:13:36;;;;;;;8.35;6.47;;;19.10;28.00;;;8.78;41.45;95646.25;5014081;28;20388;-46
2022/04/04 10:16:03;;;;;;;8.07;7.07;;;19.70;27.90;;;9.14;41.06;95643.13;5014107;28;20068;-48
2022/04/04 10:18:29;;;;;;;7.45;6.70;;;20.10;28.20;;;9.11;41.76;95647.06;5012804;28;20046;-50
2022/04/04 10:21:01;;;;;;;9.45;6.93;;;20.10;27.40;;;8.63;40.23;95640.00;4997645;28;20396;-48
2022/04/04 10:23:29;;;;;;;7.97;6.97;;;19.90;27.40;;;8.87;42.29;95633.34;5013110;28;20018;-47
2022/04/04 10:25:58;;;;;;;9.65;7.00;;;20.00;27.40;;;8.66;41.72;95631.53;5006275;28;20387;-46
2022/04/04 10:28:29;;;;;;;7.47;6.68;;;19.70;27.30;;;8.31;40.29;95633.53;5025739;28;20089;-46
2022/04/04 10:31:19;;;;;;;8.15;7.03;;;19.40;27.30;;;8.34;43.34;95630.38;5015419;28;20021;-48
2022/04/04 10:33:57;;;;;;;8.15;7.05;;;19.00;27.70;;;8.61;42.75;95628.81;5009502;28;20022;-47
2022/04/04 10:36:25;;;;;;;8.88;7.70;;;18.80;28.20;;;9.21;43.58;95631.22;5013912;28;20028;-48
2022/04/04 10:39:30;;;;;;;8.25;6.80;;;19.70;28.10;;;9.96;41.84;95621.31;5013838;28;20026;-48